Flight Track Log - Related Links

Times and Time Zones

All times are in EDT time to prevent confusion due to time zone crossing. See the N6448 flight status page for this flight to view local times or setup timezone preferences in your user account.

Time Position Orientation Groundspeed Altitude Reporting Facility
EDT Latitude Longitude Course Direction KTS MPH feet Rate Location/Type
Mon 06:43:52 PM 39.9542 -89.5292 41° Northeast  Level FlightAware Approximate
Mon 06:44:52 PM 39.9787 -89.5011 43° Northeast  Level FlightAware Approximate
Mon 06:45:52 PM 40.0028 -89.4721 43° Northeast  Level FlightAware Approximate
Mon 06:46:52 PM 40.0269 -89.4432 43° Northeast  Level FlightAware Approximate
Mon 06:47:52 PM 40.0509 -89.4142 43° Northeast  Level FlightAware Approximate
Mon 06:48:52 PM 40.0750 -89.3852 43° Northeast  Level FlightAware Approximate
Mon 06:49:52 PM 40.0991 -89.3562 43° Northeast  Level FlightAware Approximate
Mon 06:50:52 PM 40.1231 -89.3272 57° Northeast  Level FlightAware Approximate
Mon 06:51:52 PM 40.1407 -89.2920 42° Northeast  Level FlightAware Approximate
Mon 06:52:52 PM 40.1652 -89.2635 42° Northeast  Level FlightAware Approximate
Mon 06:53:52 PM 40.1897 -89.2351 42° Northeast  Level FlightAware Approximate
Mon 06:54:52 PM 40.2141 -89.2066 42° Northeast  Level FlightAware Approximate
Mon 06:55:52 PM 40.2386 -89.1781 42° Northeast  Level FlightAware Approximate
Mon 06:56:52 PM 40.2630 -89.1496 42° Northeast  Level FlightAware Approximate
Mon 06:57:52 PM 40.2874 -89.1210 42° Northeast  Level FlightAware Approximate
Mon 06:58:52 PM 40.3119 -89.0924 42° Northeast  Level FlightAware Approximate
Mon 06:59:52 PM 40.3362 -89.0638 40° Northeast  Level FlightAware Approximate
Mon 07:00:52 PM 40.3614 -89.0363 42° Northeast  Level FlightAware Approximate
Mon 07:01:52 PM 40.3856 -89.0074 42° Northeast  Level FlightAware Approximate
Mon 07:02:52 PM 40.4097 -88.9784 43° Northeast  Level FlightAware Approximate
Mon 07:03:52 PM 40.4338 -88.9493 30° Northeast  Level FlightAware Approximate
Mon 07:04:52 PM 40.4621 -88.9275 78° East  Level Estimated
Mon 07:05:52 PM 40.4667 -88.9000 311° West  Level FlightAware Approximate
Mon 07:06:52 PM 40.4880 -88.9326 131° Southeast  Level Estimated
Mon 07:07:52 PM 40.4667 -88.9000 311° West  Level FlightAware Approximate
Mon 07:08:52 PM 40.4880 -88.9326 131° Southeast  Level Estimated
Mon 07:09:52 PM 40.4667 -88.9000 311° West  Level FlightAware Approximate
Mon 07:10:52 PM 40.4880 -88.9326 131° Southeast  Level Estimated
Mon 07:11:52 PM 40.4667 -88.9000 311° West  Level FlightAware Approximate
Mon 07:12:52 PM 40.4880 -88.9326 131° Southeast  Level Estimated
Mon 07:13:52 PM 40.4667 -88.9000 311° West  Level FlightAware Approximate
Mon 07:14:52 PM 40.4880 -88.9326 131° Southeast  Level Estimated
Mon 07:15:52 PM 40.4667 -88.9000 311° West  Level FlightAware Approximate
Mon 07:16:52 PM 40.4880 -88.9326 131° Southeast  Level Estimated
Mon 07:17:52 PM 40.4667 -88.9000 311° West  Level FlightAware Approximate
Mon 07:18:52 PM 40.4880 -88.9326 131° Southeast  Level Estimated
Mon 07:19:52 PM 40.4667 -88.9000 311° West  Level FlightAware Approximate
Mon 07:20:52 PM 40.4880 -88.9326 311° West  Level Estimated

Login

Don't have an account? Register now (free) for customized features, flight alerts, and more!